createdAt,value
2023-01-07T00:00:48.922Z,9.67
2023-01-07T00:03:16.579Z,6.87
2023-01-07T00:05:43.645Z,8.67
2023-01-07T00:08:10.720Z,7.20
2023-01-07T00:10:37.086Z,8.97
2023-01-07T00:13:03.408Z,9.43
2023-01-07T00:15:29.699Z,9.20
2023-01-07T00:17:56.089Z,7.77
2023-01-07T00:20:22.382Z,6.43
2023-01-07T00:22:49.998Z,6.70
2023-01-07T00:25:16.404Z,6.37
2023-01-07T00:27:43.784Z,7.90
2023-01-07T00:30:11.526Z,7.03
2023-01-07T00:32:56.673Z,7.27
2023-01-07T00:35:23.476Z,6.80
2023-01-07T00:37:53.480Z,5.63
2023-01-07T00:40:20.530Z,6.67
2023-01-07T00:42:56.790Z,8.33
2023-01-07T00:45:24.252Z,8.30
2023-01-07T00:47:53.695Z,6.73
2023-01-07T00:50:27.625Z,8.00
2023-01-07T00:52:54.164Z,6.83
2023-01-07T00:55:20.619Z,7.33
2023-01-07T00:57:46.954Z,8.53
2023-01-07T01:00:14.520Z,6.20
2023-01-07T01:02:40.923Z,7.07
2023-01-07T01:05:07.623Z,9.20
2023-01-07T01:07:34.453Z,5.07
2023-01-07T01:10:01.128Z,7.37
2023-01-07T01:12:27.688Z,4.83
2023-01-07T01:14:54.378Z,8.33
2023-01-07T01:17:21.369Z,6.80
2023-01-07T01:19:47.798Z,5.93
2023-01-07T01:22:14.276Z,5.53
2023-01-07T01:24:40.654Z,5.53
2023-01-07T01:27:07.086Z,6.73
2023-01-07T01:29:33.520Z,7.40
2023-01-07T01:32:01.030Z,4.40
2023-01-07T01:34:27.460Z,4.43
2023-01-07T01:36:53.857Z,5.73
2023-01-07T01:39:20.510Z,4.97
2023-01-07T01:41:47.379Z,6.43
2023-01-07T01:44:32.580Z,7.10
2023-01-07T01:46:59.101Z,10.47
2023-01-07T01:49:27.578Z,6.23
2023-01-07T01:52:02.984Z,4.33
2023-01-07T01:54:29.371Z,7.03
2023-01-07T01:56:57.856Z,4.97
2023-01-07T01:59:25.905Z,6.27
2023-01-07T02:01:53.580Z,7.67
2023-01-07T02:04:21.903Z,5.63
2023-01-07T02:07:08.652Z,6.03
2023-01-07T02:09:36.311Z,6.03
2023-01-07T02:12:25.728Z,4.80
2023-01-07T02:15:07.640Z,6.20
2023-01-07T02:17:47.037Z,6.53
2023-01-07T02:20:31.991Z,6.93
2023-01-07T02:22:58.280Z,5.67
2023-01-07T02:25:30.801Z,6.03
2023-01-07T02:28:19.528Z,8.30
2023-01-07T02:31:04.708Z,8.53
2023-01-07T02:33:39.665Z,6.97
2023-01-07T02:36:05.958Z,6.83
2023-01-07T02:38:42.649Z,5.47
2023-01-07T02:41:17.136Z,7.97
2023-01-07T02:43:52.179Z,6.33
2023-01-07T02:46:18.471Z,4.60
2023-01-07T02:48:45.612Z,5.43
2023-01-07T02:51:12.026Z,8.23
2023-01-07T02:53:39.866Z,4.80
2023-01-07T02:56:29.203Z,8.23
2023-01-07T02:59:04.697Z,9.43
2023-01-07T03:01:31.081Z,7.70
2023-01-07T03:04:16.419Z,6.37
2023-01-07T03:06:54.764Z,6.20
2023-01-07T03:09:21.048Z,6.43
2023-01-07T03:11:53.740Z,8.17
2023-01-07T03:14:24.372Z,8.00
2023-01-07T03:16:53.992Z,8.83
2023-01-07T03:19:22.985Z,9.93
2023-01-07T03:21:50.155Z,5.57
2023-01-07T03:24:16.941Z,5.57
2023-01-07T03:26:45.400Z,7.57
2023-01-07T03:29:13.327Z,7.53
2023-01-07T03:31:43.313Z,5.60
2023-01-07T03:34:12.055Z,5.33
2023-01-07T03:36:40.470Z,6.63
2023-01-07T03:39:07.545Z,8.90
2023-01-07T03:41:52.520Z,8.73
2023-01-07T03:44:18.875Z,7.23
2023-01-07T03:46:45.356Z,9.97
2023-01-07T03:49:11.651Z,5.63
2023-01-07T03:51:38.060Z,7.07
2023-01-07T03:54:04.749Z,6.77
2023-01-07T03:56:31.056Z,6.03
2023-01-07T03:58:57.453Z,7.00
2023-01-07T04:01:23.937Z,4.83
2023-01-07T04:03:50.357Z,6.30
2023-01-07T04:06:16.725Z,6.30
2023-01-07T04:08:43.038Z,5.87
2023-01-07T04:11:09.425Z,6.00
2023-01-07T04:13:35.815Z,6.00
2023-01-07T04:16:02.175Z,5.67
2023-01-07T04:18:28.539Z,5.83
2023-01-07T04:20:54.840Z,6.70
2023-01-07T04:23:21.157Z,7.53
2023-01-07T04:25:48.009Z,6.33
2023-01-07T04:28:14.475Z,5.73
2023-01-07T04:30:40.976Z,4.97
2023-01-07T04:33:07.457Z,6.87
2023-01-07T04:35:33.924Z,11.30
2023-01-07T04:38:00.368Z,7.13
2023-01-07T04:40:26.788Z,8.10
2023-01-07T04:42:53.194Z,8.93
2023-01-07T04:45:19.531Z,8.57
2023-01-07T04:47:45.907Z,9.93
2023-01-07T04:50:12.307Z,5.87
2023-01-07T04:52:38.731Z,7.03
2023-01-07T04:55:05.600Z,6.23
2023-01-07T04:57:31.936Z,7.50
2023-01-07T04:59:58.315Z,9.43
2023-01-07T05:02:24.812Z,6.27
2023-01-07T05:04:51.257Z,8.80
2023-01-07T05:07:17.694Z,6.47
2023-01-07T05:09:43.999Z,10.57
2023-01-07T05:12:10.299Z,7.87
2023-01-07T05:14:36.688Z,14.37
2023-01-07T05:17:03.084Z,11.50
2023-01-07T05:19:29.440Z,10.67
2023-01-07T05:21:55.763Z,9.33
2023-01-07T05:24:22.092Z,7.13
2023-01-07T05:26:48.514Z,8.40
2023-01-07T05:29:14.811Z,9.17
2023-01-07T05:31:42.038Z,8.50
2023-01-07T05:34:08.497Z,9.70
2023-01-07T05:36:34.848Z,10.47
2023-01-07T05:39:01.213Z,9.57
2023-01-07T05:41:27.560Z,10.43
2023-01-07T05:43:54.009Z,8.33
2023-01-07T05:46:20.390Z,9.80
2023-01-07T05:48:46.753Z,8.33
2023-01-07T05:51:13.206Z,11.97
2023-01-07T05:53:39.626Z,11.00
2023-01-07T05:56:06.141Z,12.27
2023-01-07T05:58:32.445Z,8.30
2023-01-07T06:00:58.788Z,8.20
2023-01-07T06:03:25.199Z,12.90
2023-01-07T06:05:51.640Z,10.97
2023-01-07T06:08:17.937Z,9.33
2023-01-07T06:10:44.530Z,12.40
2023-01-07T06:13:10.848Z,12.07
2023-01-07T06:15:37.194Z,8.97
2023-01-07T06:18:03.755Z,13.17
2023-01-07T06:20:34.424Z,7.80
2023-01-07T06:23:02.759Z,9.70
2023-01-07T06:25:29.391Z,6.77
2023-01-07T06:27:58.891Z,11.80
2023-01-07T06:30:25.233Z,9.47
2023-01-07T06:32:51.561Z,10.60
2023-01-07T06:35:17.942Z,8.23
2023-01-07T06:37:44.422Z,11.13
2023-01-07T06:40:12.025Z,8.53
2023-01-07T06:42:38.430Z,8.37
2023-01-07T06:45:04.964Z,7.03
2023-01-07T06:47:31.332Z,10.07
2023-01-07T06:49:57.664Z,7.07
2023-01-07T06:52:24.022Z,9.37
2023-01-07T06:54:50.373Z,9.87
2023-01-07T06:57:16.682Z,9.07
2023-01-07T06:59:43.006Z,8.30
2023-01-07T07:02:20.187Z,7.10
2023-01-07T07:04:47.796Z,7.70
2023-01-07T07:07:14.261Z,9.53
2023-01-07T07:09:40.928Z,7.50
2023-01-07T07:12:07.591Z,7.07
2023-01-07T07:14:34.296Z,7.97
2023-01-07T07:17:00.678Z,5.47
2023-01-07T07:19:27.263Z,6.87
2023-01-07T07:21:53.603Z,8.67
2023-01-07T07:24:19.949Z,5.77
2023-01-07T07:26:46.385Z,4.93
2023-01-07T07:29:12.792Z,8.17
2023-01-07T07:31:39.199Z,6.83
2023-01-07T07:34:05.595Z,6.03
2023-01-07T07:36:31.992Z,6.50
2023-01-07T07:38:58.360Z,5.40
2023-01-07T07:41:24.689Z,8.03
2023-01-07T07:43:51.125Z,3.23
2023-01-07T07:46:17.482Z,3.87
2023-01-07T07:48:43.984Z,4.13
2023-01-07T07:51:10.419Z,3.40
2023-01-07T07:53:36.744Z,5.97
2023-01-07T07:56:03.178Z,5.33
2023-01-07T07:58:29.623Z,3.73
2023-01-07T08:00:56.101Z,5.50
2023-01-07T08:03:22.577Z,2.67
2023-01-07T08:05:48.941Z,3.83
2023-01-07T08:08:15.361Z,3.07
2023-01-07T08:10:41.806Z,3.83
2023-01-07T08:13:09.833Z,5.93
2023-01-07T08:15:36.624Z,1.97
2023-01-07T08:18:04.872Z,2.47
2023-01-07T08:20:31.760Z,3.93
2023-01-07T08:22:59.176Z,3.37
2023-01-07T08:25:25.493Z,4.13
2023-01-07T08:27:51.819Z,4.80
2023-01-07T08:30:18.577Z,3.13
2023-01-07T08:32:44.877Z,2.90
2023-01-07T08:35:11.821Z,2.43
2023-01-07T08:37:38.120Z,2.07
2023-01-07T08:40:06.143Z,2.60
2023-01-07T08:42:32.636Z,1.97
2023-01-07T08:44:58.988Z,3.60
2023-01-07T08:47:27.898Z,3.03
2023-01-07T08:49:57.424Z,2.37
2023-01-07T08:52:24.413Z,2.17
2023-01-07T08:54:50.792Z,4.37
2023-01-07T08:57:17.771Z,3.87
2023-01-07T08:59:44.272Z,2.80
2023-01-07T09:02:14.686Z,2.67
2023-01-07T09:04:41.217Z,2.70
2023-01-07T09:07:07.721Z,2.67
2023-01-07T09:09:34.091Z,2.40
2023-01-07T09:12:00.519Z,4.67
2023-01-07T09:14:27.063Z,4.13
2023-01-07T09:16:53.467Z,1.90
2023-01-07T09:19:19.816Z,1.80
2023-01-07T09:21:46.176Z,1.83
2023-01-07T09:24:12.597Z,2.80
2023-01-07T09:26:39.071Z,2.70
2023-01-07T09:29:05.413Z,2.33
2023-01-07T09:31:31.878Z,1.50
2023-01-07T09:33:58.226Z,2.10
2023-01-07T09:36:24.639Z,1.20
2023-01-07T09:38:50.957Z,2.20
2023-01-07T09:41:23.397Z,3.60
2023-01-07T09:43:59.927Z,2.30
2023-01-07T09:46:30.819Z,1.80
2023-01-07T09:48:59.931Z,2.60
2023-01-07T09:51:29.073Z,2.10
2023-01-07T09:53:57.504Z,2.37
2023-01-07T09:56:23.798Z,2.43
2023-01-07T09:58:50.420Z,2.90
2023-01-07T10:01:24.352Z,2.70
2023-01-07T10:03:54.742Z,1.10
2023-01-07T10:06:43.161Z,1.47
2023-01-07T10:09:19.286Z,0.93
2023-01-07T10:11:52.955Z,1.13
2023-01-07T10:14:30.027Z,0.73
2023-01-07T10:17:04.450Z,2.00
2023-01-07T10:19:38.097Z,2.00
2023-01-07T10:22:27.816Z,2.60
2023-01-07T10:24:56.866Z,1.70
2023-01-07T10:27:31.252Z,0.60
2023-01-07T10:30:00.512Z,1.10
2023-01-07T10:32:29.737Z,0.97
2023-01-07T10:34:58.473Z,1.10
2023-01-07T10:37:30.718Z,1.20
2023-01-07T10:40:12.425Z,1.20
2023-01-07T10:42:38.770Z,1.37
2023-01-07T10:45:05.066Z,2.17
2023-01-07T10:47:40.903Z,1.10
2023-01-07T10:50:07.507Z,1.50
2023-01-07T10:52:36.684Z,0.73
2023-01-07T10:55:11.775Z,1.10
2023-01-07T10:57:39.082Z,3.00
2023-01-07T11:05:57.434Z,2.60
2023-01-07T11:08:29.345Z,1.40
2023-01-07T11:10:57.967Z,1.03
2023-01-07T11:13:30.336Z,0.73
2023-01-07T11:16:07.981Z,0.30
2023-01-07T11:18:49.686Z,1.07
2023-01-07T11:21:42.993Z,1.17
2023-01-07T11:24:19.821Z,1.00
2023-01-07T11:26:46.606Z,2.43
2023-01-07T11:29:26.305Z,1.07
2023-01-07T11:34:52.158Z,1.50
2023-01-07T11:37:38.208Z,0.80
2023-01-07T11:40:16.938Z,1.13
2023-01-07T11:43:01.013Z,2.20
2023-01-07T11:45:28.544Z,2.40
2023-01-07T11:48:06.938Z,0.83
2023-01-07T11:50:36.516Z,1.00
2023-01-07T11:53:14.858Z,0.50
2023-01-07T11:55:54.741Z,0.77
2023-01-07T11:58:29.501Z,0.70
2023-01-07T12:01:09.854Z,0.80
2023-01-07T12:03:37.127Z,0.73
2023-01-07T12:06:07.413Z,0.50
2023-01-07T12:08:34.147Z,0.97
2023-01-07T12:11:05.802Z,1.30
2023-01-07T12:13:32.304Z,2.03
2023-01-07T12:16:01.811Z,0.77
2023-01-07T12:18:34.033Z,5.07
2023-01-07T12:21:17.670Z,0.73
2023-01-07T12:24:02.218Z,1.27
2023-01-07T12:26:43.945Z,0.63
2023-01-07T12:29:10.282Z,1.37
2023-01-07T12:31:56.379Z,1.17
2023-01-07T12:34:25.898Z,1.63
2023-01-07T12:36:54.624Z,1.47
2023-01-07T12:39:26.109Z,1.13
2023-01-07T12:42:03.496Z,1.47
2023-01-07T12:44:29.916Z,2.57
2023-01-07T12:47:31.674Z,0.90
2023-01-07T12:50:02.853Z,1.73
2023-01-07T12:52:44.352Z,3.27
2023-01-07T12:55:13.797Z,1.73
2023-01-07T12:57:40.914Z,1.83
2023-01-07T13:00:18.524Z,2.60
2023-01-07T13:03:11.416Z,1.37
2023-01-07T13:05:42.137Z,1.63
2023-01-07T13:08:11.321Z,1.67
2023-01-07T13:10:56.121Z,0.77
2023-01-07T13:13:25.554Z,1.33
2023-01-07T13:15:52.083Z,3.50
2023-01-07T13:18:19.371Z,0.70
2023-01-07T13:20:51.718Z,1.40
2023-01-07T13:23:27.216Z,1.77
2023-01-07T13:26:03.153Z,1.97
2023-01-07T13:28:29.422Z,0.97
2023-01-07T13:31:14.738Z,1.43
2023-01-07T13:33:50.338Z,1.07
2023-01-07T13:36:28.869Z,1.57
2023-01-07T13:39:07.433Z,2.37
2023-01-07T13:41:33.837Z,2.27
2023-01-07T13:44:14.208Z,1.07
2023-01-07T13:46:43.106Z,1.50
2023-01-07T13:49:29.954Z,1.97
2023-01-07T13:51:56.847Z,1.63
2023-01-07T13:54:42.104Z,1.50
2023-01-07T13:57:23.961Z,3.80
2023-01-07T13:59:54.527Z,1.70
2023-01-07T14:02:22.774Z,0.87
2023-01-07T14:04:50.825Z,1.33
2023-01-07T14:07:18.156Z,1.17
2023-01-07T14:09:45.324Z,2.60
2023-01-07T14:12:50.601Z,1.47
2023-01-07T14:15:22.057Z,2.93
2023-01-07T14:17:48.365Z,1.90
2023-01-07T14:20:32.494Z,2.80
2023-01-07T14:23:08.493Z,1.20
2023-01-07T14:25:46.825Z,0.80
2023-01-07T14:28:13.210Z,1.97
2023-01-07T14:30:47.004Z,1.57
2023-01-07T14:33:21.341Z,1.87
2023-01-07T14:36:01.408Z,1.70
2023-01-07T14:38:33.573Z,4.27
2023-01-07T14:41:03.070Z,1.20
2023-01-07T14:43:47.514Z,3.57
2023-01-07T14:46:23.143Z,1.53
2023-01-07T14:49:01.630Z,2.17
2023-01-07T14:51:46.214Z,2.70
2023-01-07T14:54:24.514Z,2.77
2023-01-07T14:56:50.832Z,1.53
2023-01-07T14:59:36.136Z,1.63
2023-01-07T15:02:02.505Z,3.23
2023-01-07T15:04:36.413Z,1.57
2023-01-07T15:07:03.875Z,1.67
2023-01-07T15:09:59.916Z,2.20
2023-01-07T15:12:47.773Z,1.37
2023-01-07T15:15:35.251Z,1.20
2023-01-07T15:18:01.686Z,2.30
2023-01-07T15:20:41.518Z,1.10
2023-01-07T15:23:15.598Z,1.80
2023-01-07T15:25:48.887Z,1.00
2023-01-07T15:28:19.789Z,4.23
2023-01-07T15:30:46.316Z,1.57
2023-01-07T15:33:18.674Z,1.13
2023-01-07T15:35:45.003Z,2.03
2023-01-07T15:38:37.949Z,2.03
2023-01-07T15:41:04.390Z,1.17
2023-01-07T15:43:31.164Z,2.90
2023-01-07T15:46:05.282Z,1.50
2023-01-07T15:48:31.685Z,2.13
2023-01-07T15:50:58.112Z,1.87
2023-01-07T15:53:25.274Z,2.00
2023-01-07T15:55:51.905Z,2.73
2023-01-07T15:58:19.605Z,2.00
2023-01-07T16:00:50.255Z,1.33
2023-01-07T16:03:17.348Z,1.53
2023-01-07T16:05:45.108Z,2.43
2023-01-07T16:08:18.844Z,1.63
2023-01-07T16:11:04.198Z,2.30
2023-01-07T16:13:31.883Z,2.70
2023-01-07T16:16:03.182Z,3.00
2023-01-07T16:18:33.565Z,1.37
2023-01-07T16:21:04.295Z,1.90
2023-01-07T16:23:32.664Z,3.27
2023-01-07T16:26:15.483Z,2.27
2023-01-07T16:28:42.117Z,1.90
2023-01-07T16:31:12.074Z,2.37
2023-01-07T16:33:39.142Z,1.37
2023-01-07T16:36:07.255Z,2.10
2023-01-07T16:38:35.389Z,4.20
2023-01-07T16:41:01.719Z,2.47
2023-01-07T16:43:40.123Z,1.43
2023-01-07T16:46:09.581Z,1.60
2023-01-07T16:48:36.342Z,5.43
2023-01-07T16:51:02.820Z,2.03
2023-01-07T16:53:33.560Z,2.37
2023-01-07T16:56:05.746Z,1.83
2023-01-07T16:58:42.899Z,2.40
2023-01-07T17:01:10.168Z,1.87
2023-01-07T17:03:52.681Z,1.57
2023-01-07T17:06:24.541Z,2.67
2023-01-07T17:08:52.220Z,3.23
2023-01-07T17:11:22.789Z,2.17
2023-01-07T17:13:50.224Z,2.07
2023-01-07T17:16:23.683Z,2.93
2023-01-07T17:18:50.568Z,2.70
2023-01-07T17:21:35.517Z,1.60
2023-01-07T17:24:02.964Z,3.77
2023-01-07T17:26:29.473Z,3.60
2023-01-07T17:29:13.146Z,6.03
2023-01-07T17:31:40.683Z,4.60
2023-01-07T17:34:09.054Z,4.87
2023-01-07T17:36:35.537Z,2.53
2023-01-07T17:39:01.981Z,2.10
2023-01-07T17:41:51.487Z,2.70
2023-01-07T17:44:17.859Z,3.60
2023-01-07T17:46:44.222Z,2.80
2023-01-07T17:49:11.530Z,3.70
2023-01-07T17:51:39.622Z,3.47
2023-01-07T17:54:06.791Z,2.30
2023-01-07T17:56:34.510Z,5.53
2023-01-07T17:59:00.838Z,2.10
2023-01-07T18:01:28.152Z,4.10
2023-01-07T18:03:54.604Z,2.87
2023-01-07T18:06:22.386Z,4.80
2023-01-07T18:08:50.105Z,4.93
2023-01-07T18:11:37.126Z,2.83
2023-01-07T18:14:03.922Z,2.77
2023-01-07T18:16:31.165Z,4.53
2023-01-07T18:18:58.110Z,3.80
2023-01-07T18:21:24.909Z,2.10
2023-01-07T18:23:51.742Z,3.10
2023-01-07T18:26:19.262Z,4.90
2023-01-07T18:28:46.725Z,2.80
2023-01-07T18:31:13.549Z,3.47
2023-01-07T18:33:39.945Z,3.40
2023-01-07T18:36:06.457Z,3.07
2023-01-07T18:38:33.133Z,3.90
2023-01-07T18:40:59.473Z,3.43
2023-01-07T18:43:25.965Z,5.20
2023-01-07T18:45:52.515Z,3.93
2023-01-07T18:48:18.981Z,3.80
2023-01-07T18:50:47.482Z,3.60
2023-01-07T18:53:14.297Z,4.60
2023-01-07T18:55:41.390Z,4.97
2023-01-07T18:58:08.233Z,6.33
2023-01-07T19:00:34.983Z,4.53
2023-01-07T19:03:01.359Z,4.17
2023-01-07T19:05:29.034Z,2.63
2023-01-07T19:07:55.554Z,4.40
2023-01-07T19:10:22.813Z,5.07
2023-01-07T19:12:49.338Z,6.60
2023-01-07T19:15:15.827Z,4.57
2023-01-07T19:17:42.198Z,4.07
2023-01-07T19:20:08.833Z,4.03
2023-01-07T19:22:35.515Z,5.83
2023-01-07T19:25:01.922Z,5.50
2023-01-07T19:27:28.292Z,5.53
2023-01-07T19:29:54.653Z,4.60
2023-01-07T19:32:20.982Z,4.37
2023-01-07T19:34:50.201Z,3.10
2023-01-07T19:37:16.518Z,4.23
2023-01-07T19:39:42.855Z,4.23
2023-01-07T19:42:09.929Z,3.13
2023-01-07T19:44:38.348Z,3.77
2023-01-07T19:47:04.752Z,5.43
2023-01-07T19:49:31.089Z,4.13
2023-01-07T19:51:59.255Z,5.57
2023-01-07T19:54:25.754Z,3.77
2023-01-07T19:56:53.566Z,5.77
2023-01-07T19:59:19.907Z,3.57
2023-01-07T20:01:46.461Z,3.20
2023-01-07T20:04:12.885Z,2.23
2023-01-07T20:06:39.679Z,3.37
2023-01-07T20:09:11.313Z,3.30
2023-01-07T20:11:38.445Z,4.63
2023-01-07T20:14:11.936Z,3.93
2023-01-07T20:16:39.618Z,3.87
2023-01-07T20:19:06.245Z,4.33
2023-01-07T20:21:32.896Z,4.67
2023-01-07T20:23:59.334Z,4.73
2023-01-07T20:26:30.285Z,3.90
2023-01-07T20:28:57.804Z,4.60
2023-01-07T20:31:25.045Z,4.87
2023-01-07T20:33:52.192Z,7.40
2023-01-07T20:36:23.758Z,5.40
2023-01-07T20:38:50.545Z,4.30
2023-01-07T20:41:22.392Z,4.87
2023-01-07T20:43:52.770Z,4.80
2023-01-07T20:46:19.713Z,4.57
2023-01-07T20:48:47.273Z,4.43
2023-01-07T20:51:16.595Z,5.33
2023-01-07T20:53:43.082Z,8.37
2023-01-07T20:56:09.653Z,4.43
2023-01-07T20:58:37.919Z,5.27
2023-01-07T21:01:09.253Z,6.20
2023-01-07T21:03:36.471Z,4.57
2023-01-07T21:06:02.878Z,6.90
2023-01-07T21:08:29.405Z,4.13
2023-01-07T21:10:56.494Z,5.13
2023-01-07T21:13:23.658Z,3.00
2023-01-07T21:15:50.649Z,4.53
2023-01-07T21:18:20.992Z,6.23
2023-01-07T21:20:48.003Z,5.20
2023-01-07T21:23:14.886Z,3.13
2023-01-07T21:25:41.591Z,9.30
2023-01-07T21:28:09.939Z,3.60
2023-01-07T21:30:36.683Z,4.80
2023-01-07T21:33:03.228Z,5.90
2023-01-07T21:35:29.577Z,3.13
2023-01-07T21:37:55.887Z,3.07
2023-01-07T21:40:22.545Z,4.27
2023-01-07T21:42:49.102Z,7.50
2023-01-07T21:45:15.624Z,7.17
2023-01-07T21:47:42.217Z,4.17
2023-01-07T21:50:08.928Z,3.23
2023-01-07T21:52:35.742Z,3.70
2023-01-07T21:55:02.106Z,4.73
2023-01-07T21:57:28.820Z,3.40
2023-01-07T21:59:55.123Z,4.27
2023-01-07T22:02:21.416Z,4.90
2023-01-07T22:04:48.083Z,5.47
2023-01-07T22:07:18.073Z,6.97
2023-01-07T22:09:44.538Z,5.23
2023-01-07T22:12:11.410Z,2.73
2023-01-07T22:14:38.784Z,5.30
2023-01-07T22:17:05.491Z,8.60
2023-01-07T22:19:31.895Z,4.80
2023-01-07T22:21:58.605Z,5.33
2023-01-07T22:24:25.016Z,6.73
2023-01-07T22:26:52.722Z,6.53
2023-01-07T22:29:19.084Z,4.90
2023-01-07T22:31:48.245Z,4.50
2023-01-07T22:34:14.626Z,3.83
2023-01-07T22:36:40.933Z,1.30
2023-01-07T22:39:10.328Z,7.40
2023-01-07T22:41:37.011Z,1.80
2023-01-07T22:44:06.019Z,3.23
2023-01-07T22:46:33.439Z,3.17
2023-01-07T22:48:59.788Z,6.20
2023-01-07T22:51:31.604Z,4.70
2023-01-07T22:53:58.782Z,3.03
2023-01-07T22:56:26.367Z,2.97
2023-01-07T22:58:52.732Z,5.13
2023-01-07T23:01:19.248Z,6.50
2023-01-07T23:03:45.947Z,8.27
2023-01-07T23:06:14.444Z,3.20
2023-01-07T23:08:41.168Z,4.30
2023-01-07T23:11:07.975Z,6.03
2023-01-07T23:13:34.689Z,3.50
2023-01-07T23:16:02.307Z,2.70
2023-01-07T23:18:28.983Z,5.07
2023-01-07T23:20:55.553Z,3.03
2023-01-07T23:23:21.872Z,4.90
2023-01-07T23:25:49.138Z,5.77
2023-01-07T23:28:15.897Z,8.80
2023-01-07T23:30:42.265Z,6.47
2023-01-07T23:33:09.131Z,5.00
2023-01-07T23:35:35.695Z,7.27
2023-01-07T23:38:03.804Z,4.97
2023-01-07T23:40:30.152Z,6.20
2023-01-07T23:42:57.779Z,6.70
2023-01-07T23:45:24.194Z,3.77
2023-01-07T23:47:50.482Z,6.70
2023-01-07T23:50:16.935Z,9.67
2023-01-07T23:52:43.265Z,6.63
2023-01-07T23:55:10.515Z,4.93
2023-01-07T23:57:36.936Z,14.97
